Terminal Aerodrome Forecast
Issued by NWS Missoula, MT

Home | Current Version | Previous Version | Text Only | Print | Product List | Glossary On
Versions: 1 2 3 4 5 6 7 8 9 10 11 12 13 14 15 16 17 18
755
FTUS45 KMSO 201739
TAFMSO
TAF
KMSO 201739Z 2018/2118 VRB05KT 5SM -RA OVC035
     FM202300 11004KT 4SM -RAGS BR SCT015 OVC025
     FM210200 32005KT P6SM OVC040
     FM211100 00000KT 1SM BR SCT002 OVC030=

USA.gov is the U.S. government's official web portal to all federal, state and local government web resources and services.